createdAt,value
2022-09-04T00:01:24.652Z,5.57
2022-09-04T00:04:51.202Z,5.85
2022-09-04T00:08:12.011Z,5.60
2022-09-04T00:11:38.208Z,6.00
2022-09-04T00:15:07.811Z,6.25
2022-09-04T00:18:22.090Z,6.00
2022-09-04T00:21:44.135Z,7.00
2022-09-04T00:24:54.436Z,6.37
2022-09-04T00:28:18.160Z,6.50
2022-09-04T00:31:38.930Z,5.93
2022-09-04T00:34:46.296Z,5.82
2022-09-04T00:41:39.162Z,5.80
2022-09-04T00:44:50.465Z,6.40
2022-09-04T00:48:23.156Z,5.82
2022-09-04T00:51:40.486Z,6.50
2022-09-04T00:54:57.617Z,5.97
2022-09-04T00:58:21.705Z,6.10
2022-09-04T01:01:26.627Z,6.47
2022-09-04T01:04:36.435Z,5.87
2022-09-04T01:07:49.172Z,5.68
2022-09-04T01:11:04.129Z,6.25
2022-09-04T01:14:26.455Z,6.12
2022-09-04T01:17:39.010Z,5.95
2022-09-04T01:20:56.819Z,6.65
2022-09-04T01:27:43.927Z,6.10
2022-09-04T01:31:02.237Z,6.43
2022-09-04T01:34:37.524Z,5.90
2022-09-04T01:37:43.654Z,6.18
2022-09-04T01:41:16.035Z,6.00
2022-09-04T01:44:17.847Z,6.53
2022-09-04T01:47:54.282Z,7.18
2022-09-04T01:51:03.110Z,8.48
2022-09-04T01:54:30.284Z,7.40
2022-09-04T01:57:48.470Z,7.32
2022-09-04T02:01:08.327Z,8.15
2022-09-04T02:04:34.980Z,7.62
2022-09-04T02:07:56.659Z,7.50
2022-09-04T02:11:14.981Z,9.27
2022-09-04T02:14:41.087Z,9.50
2022-09-04T02:17:56.158Z,9.52
2022-09-04T02:21:17.425Z,8.82
2022-09-04T02:24:35.702Z,7.30
2022-09-04T02:27:54.142Z,7.60
2022-09-04T02:31:07.840Z,6.97
2022-09-04T02:34:43.623Z,7.18
2022-09-04T02:37:48.361Z,6.80
2022-09-04T02:41:15.751Z,6.70
2022-09-04T02:44:39.321Z,7.27
2022-09-04T02:48:18.659Z,6.57
2022-09-04T02:51:43.746Z,6.20
2022-09-04T02:55:11.274Z,6.28
2022-09-04T02:58:44.246Z,5.45
2022-09-04T03:01:59.397Z,5.37
2022-09-04T03:05:26.868Z,4.93
2022-09-04T03:08:37.209Z,4.60
2022-09-04T03:11:46.030Z,4.50
2022-09-04T03:15:11.982Z,3.95
2022-09-04T03:18:35.222Z,4.40
2022-09-04T03:21:50.545Z,3.12
2022-09-04T03:25:20.845Z,2.85
2022-09-04T03:29:01.190Z,2.83
2022-09-04T03:32:16.909Z,2.60
2022-09-04T03:35:23.532Z,2.97
2022-09-04T03:38:28.852Z,3.90
2022-09-04T03:41:38.951Z,3.47
2022-09-04T03:45:08.651Z,3.00
2022-09-04T03:48:23.359Z,3.03
2022-09-04T03:51:55.940Z,3.67
2022-09-04T03:55:05.951Z,3.55
2022-09-04T03:58:41.659Z,3.53
2022-09-04T04:02:14.986Z,3.53
2022-09-04T04:05:42.140Z,3.58
2022-09-04T04:09:14.656Z,3.45
2022-09-04T04:12:59.968Z,3.30
2022-09-04T04:16:31.293Z,3.53
2022-09-04T04:19:45.494Z,3.35
2022-09-04T04:23:05.820Z,3.15
2022-09-04T04:26:50.593Z,3.78
2022-09-04T04:30:04.723Z,3.83
2022-09-04T04:33:22.733Z,3.47
2022-09-04T04:36:48.509Z,3.28
2022-09-04T04:40:01.993Z,3.17
2022-09-04T04:43:23.428Z,2.40
2022-09-04T04:46:56.056Z,2.22
2022-09-04T04:50:03.345Z,2.53
2022-09-04T04:53:23.788Z,2.28
2022-09-04T04:56:46.467Z,3.03
2022-09-04T05:00:27.651Z,2.35
2022-09-04T05:03:54.463Z,2.50
2022-09-04T05:07:14.804Z,2.20
2022-09-04T05:10:42.787Z,2.40
2022-09-04T05:14:29.386Z,2.70
2022-09-04T05:17:42.233Z,2.12
2022-09-04T05:20:57.303Z,2.72
2022-09-04T05:24:02.633Z,3.10
2022-09-04T05:27:18.835Z,3.47
2022-09-04T05:30:31.113Z,3.10
2022-09-04T05:33:51.728Z,3.08
2022-09-04T05:37:26.147Z,3.17
2022-09-04T05:40:33.163Z,3.00
2022-09-04T05:43:46.725Z,2.72
2022-09-04T05:47:00.665Z,2.80
2022-09-04T05:50:32.025Z,3.08
2022-09-04T05:53:58.002Z,2.78
2022-09-04T05:57:29.876Z,3.45
2022-09-04T06:00:58.957Z,3.50
2022-09-04T06:04:12.498Z,3.65
2022-09-04T06:07:17.333Z,3.30
2022-09-04T06:10:43.827Z,3.20
2022-09-04T06:13:54.735Z,3.47
2022-09-04T06:17:23.100Z,3.40
2022-09-04T06:20:46.146Z,3.67
2022-09-04T06:23:59.807Z,3.17
2022-09-04T06:27:23.581Z,3.72
2022-09-04T06:30:31.096Z,3.70
2022-09-04T06:34:06.182Z,3.65
2022-09-04T06:37:14.050Z,3.85
2022-09-04T06:40:48.560Z,3.30
2022-09-04T06:44:24.272Z,3.03
2022-09-04T06:47:31.599Z,3.70
2022-09-04T06:53:59.245Z,3.87
2022-09-04T06:57:30.041Z,3.67
2022-09-04T07:00:43.651Z,3.85
2022-09-04T07:04:03.726Z,3.72
2022-09-04T07:07:24.970Z,3.62
2022-09-04T07:10:42.950Z,3.60
2022-09-04T07:13:50.545Z,3.20
2022-09-04T07:17:11.398Z,3.53
2022-09-04T07:20:25.407Z,2.97
2022-09-04T07:24:03.022Z,3.10
2022-09-04T07:27:35.251Z,3.13
2022-09-04T07:30:56.727Z,3.33
2022-09-04T07:34:21.663Z,3.20
2022-09-04T07:37:47.893Z,3.22
2022-09-04T07:41:11.367Z,2.95
2022-09-04T07:44:38.639Z,2.97
2022-09-04T07:47:47.073Z,2.70
2022-09-04T07:50:58.195Z,3.30
2022-09-04T07:54:36.648Z,3.33
2022-09-04T07:57:47.086Z,2.90
2022-09-04T08:01:23.366Z,2.85
2022-09-04T08:04:51.822Z,2.80
2022-09-04T08:08:18.451Z,3.55
2022-09-04T08:11:32.514Z,2.60
2022-09-04T08:14:53.937Z,2.30
2022-09-04T08:18:20.356Z,2.65
2022-09-04T08:21:35.865Z,2.67
2022-09-04T08:24:40.664Z,2.80
2022-09-04T08:28:06.791Z,2.90
2022-09-04T08:31:25.619Z,2.47
2022-09-04T08:34:46.218Z,2.90
2022-09-04T08:37:57.098Z,3.40
2022-09-04T08:41:20.501Z,2.65
2022-09-04T08:44:46.829Z,3.67
2022-09-04T08:48:26.359Z,3.00
2022-09-04T08:52:00.164Z,2.67
2022-09-04T08:55:18.170Z,2.50
2022-09-04T08:58:55.298Z,2.60
2022-09-04T09:02:08.035Z,2.47
2022-09-04T09:05:37.699Z,2.75
2022-09-04T09:09:16.712Z,2.40
2022-09-04T09:12:40.674Z,2.50
2022-09-04T09:16:22.153Z,2.20
2022-09-04T09:19:43.468Z,2.62
2022-09-04T09:23:36.721Z,2.10
2022-09-04T09:27:05.894Z,2.10
2022-09-04T09:30:13.306Z,1.90
2022-09-04T09:33:20.624Z,2.10
2022-09-04T09:36:25.116Z,1.90
2022-09-04T09:39:38.970Z,2.20
2022-09-04T09:42:49.519Z,1.77
2022-09-04T09:46:13.669Z,2.10
2022-09-04T09:49:32.169Z,2.60
2022-09-04T09:53:11.244Z,3.47
2022-09-04T09:56:41.059Z,2.17
2022-09-04T10:00:12.588Z,2.22
2022-09-04T10:03:46.766Z,2.05
2022-09-04T10:07:10.765Z,4.10
2022-09-04T10:10:46.585Z,3.28
2022-09-04T10:14:13.352Z,3.87
2022-09-04T10:17:42.909Z,1.80
2022-09-04T10:21:10.606Z,2.28
2022-09-04T10:30:52.015Z,2.00
2022-09-04T10:34:10.509Z,2.20
2022-09-04T10:37:43.196Z,2.12
2022-09-04T10:41:30.161Z,1.92
2022-09-04T10:45:09.660Z,4.75
2022-09-04T10:48:29.570Z,2.35
2022-09-04T10:51:50.565Z,3.25
2022-09-04T10:55:20.699Z,2.80
2022-09-04T10:58:40.287Z,2.83
2022-09-04T11:01:53.565Z,2.53
2022-09-04T11:05:19.607Z,2.08
2022-09-04T11:08:24.394Z,2.30
2022-09-04T11:11:28.751Z,2.10
2022-09-04T11:14:49.869Z,2.00
2022-09-04T11:18:34.365Z,2.20
2022-09-04T11:21:38.839Z,2.20
2022-09-04T11:25:04.297Z,2.20
2022-09-04T11:28:47.825Z,2.20
2022-09-04T11:32:18.747Z,3.80
2022-09-04T11:35:49.188Z,2.20
2022-09-04T11:39:16.533Z,2.30
2022-09-04T11:42:25.562Z,2.03
2022-09-04T11:45:39.125Z,1.95
2022-09-04T11:49:09.436Z,2.03
2022-09-04T11:52:14.539Z,2.45
2022-09-04T11:55:25.418Z,2.60
2022-09-04T11:58:44.549Z,2.25
2022-09-04T12:02:06.542Z,2.40
2022-09-04T12:05:45.927Z,2.20
2022-09-04T12:09:02.759Z,1.95
2022-09-04T12:12:22.919Z,2.12
2022-09-04T12:15:47.344Z,2.15
2022-09-04T12:19:05.488Z,2.00
2022-09-04T12:22:16.257Z,2.50
2022-09-04T12:25:36.681Z,2.40
2022-09-04T12:28:58.445Z,2.40
2022-09-04T12:32:21.825Z,2.35
2022-09-04T12:35:39.653Z,2.30
2022-09-04T12:39:20.494Z,2.70
2022-09-04T12:43:05.870Z,2.30
2022-09-04T12:46:17.102Z,3.22
2022-09-04T12:49:18.674Z,2.50
2022-09-04T12:52:23.607Z,2.58
2022-09-04T12:55:52.951Z,2.47
2022-09-04T12:59:19.048Z,2.30
2022-09-04T13:02:28.000Z,2.50
2022-09-04T13:05:52.990Z,2.17
2022-09-04T13:09:12.451Z,2.45
2022-09-04T13:12:41.867Z,2.35
2022-09-04T13:15:58.105Z,2.58
2022-09-04T13:19:09.034Z,2.50
2022-09-04T13:22:30.913Z,2.65
2022-09-04T13:26:02.432Z,2.47
2022-09-04T13:29:16.511Z,2.72
2022-09-04T13:32:43.839Z,2.47
2022-09-04T13:36:49.701Z,2.55
2022-09-04T13:40:05.159Z,2.25
2022-09-04T13:46:49.730Z,2.17
2022-09-04T13:50:17.362Z,2.20
2022-09-04T13:53:34.086Z,2.25
2022-09-04T13:56:50.815Z,2.42
2022-09-04T14:00:00.503Z,2.30
2022-09-04T14:03:10.755Z,2.37
2022-09-04T14:06:16.872Z,2.10
2022-09-04T14:09:18.694Z,2.63
2022-09-04T14:12:41.239Z,2.97
2022-09-04T14:15:58.404Z,2.60
2022-09-04T14:19:33.009Z,1.95
2022-09-04T14:22:49.446Z,2.45
2022-09-04T14:26:11.512Z,2.35
2022-09-04T14:29:54.963Z,2.47
2022-09-04T14:33:19.040Z,2.30
2022-09-04T14:36:40.680Z,2.35
2022-09-04T14:39:57.946Z,2.28
2022-09-04T14:43:15.002Z,2.92
2022-09-04T14:46:42.492Z,2.25
2022-09-04T14:49:49.574Z,2.60
2022-09-04T14:52:58.051Z,2.28
2022-09-04T14:56:19.394Z,3.15
2022-09-04T14:59:35.798Z,2.50
2022-09-04T15:02:47.664Z,2.40
2022-09-04T15:06:01.754Z,2.50
2022-09-04T15:09:29.058Z,2.70
2022-09-04T15:12:36.726Z,3.08
2022-09-04T15:15:47.418Z,2.47
2022-09-04T15:19:05.562Z,2.37
2022-09-04T15:22:32.450Z,2.35
2022-09-04T15:25:59.784Z,2.85
2022-09-04T15:29:28.512Z,2.17
2022-09-04T15:32:42.679Z,2.47
2022-09-04T15:35:58.979Z,2.45
2022-09-04T15:39:04.977Z,2.53
2022-09-04T15:42:12.475Z,2.50
2022-09-04T15:45:25.868Z,2.30
2022-09-04T15:48:55.057Z,2.70
2022-09-04T15:52:10.517Z,2.30
2022-09-04T15:55:26.406Z,2.40
2022-09-04T15:59:01.798Z,2.42
2022-09-04T16:02:25.119Z,2.28
2022-09-04T16:05:41.351Z,2.40
2022-09-04T16:09:20.895Z,2.45
2022-09-04T16:12:39.049Z,2.15
2022-09-04T16:15:45.173Z,2.75
2022-09-04T16:18:46.878Z,2.20
2022-09-04T16:21:55.816Z,2.50
2022-09-04T16:25:07.984Z,2.72
2022-09-04T16:28:34.440Z,2.62
2022-09-04T16:31:36.934Z,2.60
2022-09-04T16:35:12.034Z,2.50
2022-09-04T16:38:24.051Z,2.50
2022-09-04T16:41:38.656Z,2.37
2022-09-04T16:44:45.512Z,2.40
2022-09-04T16:47:54.623Z,2.92
2022-09-04T16:51:41.413Z,2.65
2022-09-04T16:54:49.183Z,2.55
2022-09-04T16:58:02.925Z,2.58
2022-09-04T17:01:14.146Z,2.50
2022-09-04T17:04:24.531Z,2.90
2022-09-04T17:07:38.606Z,2.50
2022-09-04T17:10:41.544Z,2.92
2022-09-04T17:13:52.477Z,2.70
2022-09-04T17:17:29.886Z,3.15
2022-09-04T17:24:10.751Z,3.90
2022-09-04T17:29:13.814Z,3.37
2022-09-04T17:29:14.375Z,5.82
2022-09-04T17:31:45.327Z,2.58
2022-09-04T17:40:36.455Z,2.60
2022-09-04T17:40:44.351Z,2.80
2022-09-04T17:42:30.561Z,2.62
2022-09-04T17:46:10.889Z,3.05
2022-09-04T17:49:20.488Z,2.55
2022-09-04T17:52:30.204Z,2.67
2022-09-04T17:55:47.475Z,2.58
2022-09-04T17:59:00.224Z,2.95
2022-09-04T18:02:12.700Z,3.17
2022-09-04T18:05:34.676Z,2.90
2022-09-04T18:08:57.464Z,2.90
2022-09-04T18:12:19.822Z,2.65
2022-09-04T18:15:34.268Z,2.60
2022-09-04T18:18:47.174Z,2.45
2022-09-04T18:22:15.746Z,2.72
2022-09-04T18:25:25.205Z,2.85
2022-09-04T18:28:38.826Z,3.15
2022-09-04T18:36:11.884Z,2.53
2022-09-04T18:37:08.883Z,3.03
2022-09-04T18:39:41.284Z,2.78
2022-09-04T18:50:25.691Z,2.78
2022-09-04T18:50:36.799Z,3.15
2022-09-04T18:50:45.369Z,2.78
2022-09-04T18:53:32.689Z,3.40
2022-09-04T18:56:43.304Z,2.80
2022-09-04T18:59:54.126Z,3.08
2022-09-04T19:03:16.687Z,2.62
2022-09-04T19:06:33.091Z,2.80
2022-09-04T19:09:58.784Z,2.80
2022-09-04T19:13:12.891Z,3.28
2022-09-04T19:16:25.737Z,2.90
2022-09-04T19:19:50.275Z,2.60
2022-09-04T19:22:59.215Z,2.85
2022-09-04T19:26:26.474Z,3.12
2022-09-04T19:29:51.589Z,2.83
2022-09-04T19:33:10.093Z,3.20
2022-09-04T19:36:39.445Z,3.20
2022-09-04T19:45:57.692Z,3.00
2022-09-04T19:46:16.094Z,3.50
2022-09-04T19:46:48.152Z,2.97
2022-09-04T19:53:22.725Z,3.00
2022-09-04T19:53:33.616Z,3.10
2022-09-04T19:56:56.604Z,3.08
2022-09-04T20:00:31.143Z,2.67
2022-09-04T20:04:00.518Z,2.80
2022-09-04T20:07:11.440Z,2.92
2022-09-04T20:10:38.775Z,2.90
2022-09-04T20:13:51.043Z,2.70
2022-09-04T20:16:58.083Z,2.58
2022-09-04T20:20:06.307Z,3.00
2022-09-04T20:23:34.769Z,2.60
2022-09-04T20:26:56.625Z,2.83
2022-09-04T20:30:16.545Z,2.55
2022-09-04T20:33:23.990Z,2.58
2022-09-04T20:36:32.743Z,2.70
2022-09-04T20:39:43.754Z,2.65
2022-09-04T20:43:15.006Z,2.70
2022-09-04T20:48:49.732Z,2.80
2022-09-04T20:52:59.019Z,2.60
2022-09-04T20:54:15.126Z,2.78
2022-09-04T21:00:56.074Z,2.97
2022-09-04T21:03:20.991Z,2.83
2022-09-04T21:04:42.801Z,2.95
2022-09-04T21:07:52.599Z,2.97
2022-09-04T21:11:14.827Z,3.10
2022-09-04T21:14:45.361Z,3.10
2022-09-04T21:18:34.436Z,2.83
2022-09-04T21:21:53.970Z,3.10
2022-09-04T21:25:02.934Z,2.70
2022-09-04T21:28:26.742Z,2.72
2022-09-04T21:31:44.615Z,2.90
2022-09-04T21:35:20.453Z,3.22
2022-09-04T21:38:40.714Z,2.83
2022-09-04T21:41:53.275Z,3.00
2022-09-04T21:45:14.027Z,2.95
2022-09-04T21:48:31.659Z,3.10
2022-09-04T21:51:43.599Z,2.70
2022-09-04T21:57:05.546Z,2.75
2022-09-04T22:02:32.303Z,2.67
2022-09-04T22:02:51.408Z,2.83
2022-09-04T22:06:31.392Z,3.08
2022-09-04T22:13:26.512Z,2.97
2022-09-04T22:13:49.813Z,2.62
2022-09-04T22:17:10.824Z,2.90
2022-09-04T22:20:13.297Z,2.58
2022-09-04T22:23:52.545Z,2.58
2022-09-04T22:27:31.891Z,2.95
2022-09-04T22:30:51.868Z,2.75
2022-09-04T22:34:15.801Z,2.67
2022-09-04T22:37:22.082Z,2.90
2022-09-04T22:40:56.583Z,2.92
2022-09-04T22:44:17.110Z,3.08
2022-09-04T22:47:48.346Z,3.20
2022-09-04T22:51:04.557Z,3.40
2022-09-04T22:54:11.982Z,3.17
2022-09-04T22:57:23.549Z,3.30
2022-09-04T23:00:25.613Z,3.08
2022-09-04T23:04:08.765Z,3.50
2022-09-04T23:13:47.608Z,3.80
2022-09-04T23:13:53.252Z,3.42
2022-09-04T23:14:47.043Z,3.80
2022-09-04T23:19:23.777Z,3.78
2022-09-04T23:26:41.690Z,3.72
2022-09-04T23:26:49.025Z,3.25
2022-09-04T23:28:40.902Z,3.92
2022-09-04T23:32:22.541Z,3.75
2022-09-04T23:35:50.567Z,3.92
2022-09-04T23:38:57.972Z,3.70
2022-09-04T23:42:13.791Z,3.67
2022-09-04T23:46:01.723Z,3.35
2022-09-04T23:49:16.010Z,3.62
2022-09-04T23:52:27.007Z,3.72
2022-09-04T23:55:49.385Z,3.30
2022-09-04T23:59:25.527Z,3.50
